sensor_id;sensor_type;location;lat;lon;timestamp;P1;durP1;ratioP1;P2;durP2;ratioP2
71172;SDS011;58875;51.996;4.504;2022-12-07T00:01:06;3.34;;;3.16;;
71172;SDS011;58875;51.996;4.504;2022-12-07T00:03:40;3.24;;;3.02;;
71172;SDS011;58875;51.996;4.504;2022-12-07T00:06:08;2.99;;;2.81;;
71172;SDS011;58875;51.996;4.504;2022-12-07T00:08:36;2.84;;;2.62;;
71172;SDS011;58875;51.996;4.504;2022-12-07T00:11:03;2.60;;;2.29;;
71172;SDS011;58875;51.996;4.504;2022-12-07T00:13:39;3.07;;;2.63;;
71172;SDS011;58875;51.996;4.504;2022-12-07T00:16:06;3.05;;;2.61;;
71172;SDS011;58875;51.996;4.504;2022-12-07T00:18:37;3.21;;;2.73;;
71172;SDS011;58875;51.996;4.504;2022-12-07T00:21:21;2.67;;;2.26;;
71172;SDS011;58875;51.996;4.504;2022-12-07T00:23:49;2.79;;;2.36;;
71172;SDS011;58875;51.996;4.504;2022-12-07T00:26:17;3.17;;;2.62;;
71172;SDS011;58875;51.996;4.504;2022-12-07T00:28:48;2.75;;;2.31;;
71172;SDS011;58875;51.996;4.504;2022-12-07T00:31:16;2.55;;;2.21;;
71172;SDS011;58875;51.996;4.504;2022-12-07T00:33:44;2.54;;;2.24;;
71172;SDS011;58875;51.996;4.504;2022-12-07T00:36:12;2.39;;;2.15;;
71172;SDS011;58875;51.996;4.504;2022-12-07T00:38:40;2.40;;;2.18;;
71172;SDS011;58875;51.996;4.504;2022-12-07T00:41:09;2.44;;;2.16;;
71172;SDS011;58875;51.996;4.504;2022-12-07T00:43:37;2.36;;;2.11;;
71172;SDS011;58875;51.996;4.504;2022-12-07T00:46:03;2.38;;;2.12;;
71172;SDS011;58875;51.996;4.504;2022-12-07T00:48:29;2.08;;;1.88;;
71172;SDS011;58875;51.996;4.504;2022-12-07T00:50:55;2.14;;;1.94;;
71172;SDS011;58875;51.996;4.504;2022-12-07T00:53:20;2.07;;;1.90;;
71172;SDS011;58875;51.996;4.504;2022-12-07T00:55:46;1.98;;;1.83;;
71172;SDS011;58875;51.996;4.504;2022-12-07T00:58:12;1.86;;;1.75;;
71172;SDS011;58875;51.996;4.504;2022-12-07T01:00:39;2.17;;;2.04;;
71172;SDS011;58875;51.996;4.504;2022-12-07T01:03:06;2.03;;;1.90;;
71172;SDS011;58875;51.996;4.504;2022-12-07T01:05:33;2.19;;;2.02;;
71172;SDS011;58875;51.996;4.504;2022-12-07T01:07:59;2.55;;;2.26;;
71172;SDS011;58875;51.996;4.504;2022-12-07T01:10:25;2.42;;;2.03;;
71172;SDS011;58875;51.996;4.504;2022-12-07T01:12:52;2.33;;;1.98;;
71172;SDS011;58875;51.996;4.504;2022-12-07T01:15:17;2.51;;;2.12;;
71172;SDS011;58875;51.996;4.504;2022-12-07T01:17:43;2.31;;;1.96;;
71172;SDS011;58875;51.996;4.504;2022-12-07T01:20:08;2.24;;;1.88;;
71172;SDS011;58875;51.996;4.504;2022-12-07T01:22:38;2.35;;;1.99;;
71172;SDS011;58875;51.996;4.504;2022-12-07T01:25:04;2.33;;;1.94;;
71172;SDS011;58875;51.996;4.504;2022-12-07T01:27:32;2.33;;;1.93;;
71172;SDS011;58875;51.996;4.504;2022-12-07T01:29:58;2.20;;;1.85;;
71172;SDS011;58875;51.996;4.504;2022-12-07T01:32:24;2.13;;;1.81;;
71172;SDS011;58875;51.996;4.504;2022-12-07T01:34:49;2.05;;;1.77;;
71172;SDS011;58875;51.996;4.504;2022-12-07T01:37:15;1.91;;;1.68;;
71172;SDS011;58875;51.996;4.504;2022-12-07T01:39:40;1.83;;;1.64;;
71172;SDS011;58875;51.996;4.504;2022-12-07T01:42:10;1.71;;;1.53;;
71172;SDS011;58875;51.996;4.504;2022-12-07T01:47:39;1.70;;;1.49;;
71172;SDS011;58875;51.996;4.504;2022-12-07T01:50:06;1.60;;;1.41;;
71172;SDS011;58875;51.996;4.504;2022-12-07T01:52:32;1.68;;;1.50;;
71172;SDS011;58875;51.996;4.504;2022-12-07T01:55:02;1.74;;;1.52;;
71172;SDS011;58875;51.996;4.504;2022-12-07T01:57:32;1.79;;;1.46;;
71172;SDS011;58875;51.996;4.504;2022-12-07T02:00:03;1.85;;;1.44;;
71172;SDS011;58875;51.996;4.504;2022-12-07T02:02:31;1.89;;;1.43;;
71172;SDS011;58875;51.996;4.504;2022-12-07T02:05:00;1.98;;;1.46;;
71172;SDS011;58875;51.996;4.504;2022-12-07T02:07:29;2.00;;;1.45;;
71172;SDS011;58875;51.996;4.504;2022-12-07T02:09:57;1.78;;;1.26;;
71172;SDS011;58875;51.996;4.504;2022-12-07T02:12:37;1.97;;;1.37;;
71172;SDS011;58875;51.996;4.504;2022-12-07T02:15:03;2.38;;;1.65;;
71172;SDS011;58875;51.996;4.504;2022-12-07T02:17:32;2.04;;;1.41;;
71172;SDS011;58875;51.996;4.504;2022-12-07T02:28:28;2.11;;;1.44;;
71172;SDS011;58875;51.996;4.504;2022-12-07T02:31:01;1.70;;;1.16;;
71172;SDS011;58875;51.996;4.504;2022-12-07T02:33:36;2.22;;;1.52;;
71172;SDS011;58875;51.996;4.504;2022-12-07T02:36:11;2.13;;;1.46;;
71172;SDS011;58875;51.996;4.504;2022-12-07T02:38:54;1.75;;;1.20;;
71172;SDS011;58875;51.996;4.504;2022-12-07T02:41:27;2.20;;;1.49;;
71172;SDS011;58875;51.996;4.504;2022-12-07T02:44:10;2.22;;;1.50;;
71172;SDS011;58875;51.996;4.504;2022-12-07T02:46:43;2.37;;;1.58;;
71172;SDS011;58875;51.996;4.504;2022-12-07T02:49:16;2.89;;;1.91;;
71172;SDS011;58875;51.996;4.504;2022-12-07T02:51:42;2.44;;;1.61;;
71172;SDS011;58875;51.996;4.504;2022-12-07T02:54:16;2.56;;;1.68;;
71172;SDS011;58875;51.996;4.504;2022-12-07T03:13:07;2.98;;;1.91;;
71172;SDS011;58875;51.996;4.504;2022-12-07T03:18:23;2.86;;;1.85;;
71172;SDS011;58875;51.996;4.504;2022-12-07T03:20:53;3.49;;;2.24;;
71172;SDS011;58875;51.996;4.504;2022-12-07T03:23:23;3.32;;;2.11;;
71172;SDS011;58875;51.996;4.504;2022-12-07T03:25:52;3.05;;;1.93;;
71172;SDS011;58875;51.996;4.504;2022-12-07T03:28:23;2.84;;;1.82;;
71172;SDS011;58875;51.996;4.504;2022-12-07T03:31:00;3.04;;;1.95;;
71172;SDS011;58875;51.996;4.504;2022-12-07T03:33:33;2.87;;;1.82;;
71172;SDS011;58875;51.996;4.504;2022-12-07T03:36:09;3.21;;;2.03;;
71172;SDS011;58875;51.996;4.504;2022-12-07T03:39:00;3.18;;;2.00;;
71172;SDS011;58875;51.996;4.504;2022-12-07T03:41:37;2.69;;;1.69;;
71172;SDS011;58875;51.996;4.504;2022-12-07T03:44:04;3.43;;;2.17;;
71172;SDS011;58875;51.996;4.504;2022-12-07T03:49:11;3.48;;;2.17;;
71172;SDS011;58875;51.996;4.504;2022-12-07T03:51:55;3.10;;;1.93;;
71172;SDS011;58875;51.996;4.504;2022-12-07T03:54:52;3.21;;;1.99;;
71172;SDS011;58875;51.996;4.504;2022-12-07T03:57:25;2.62;;;1.63;;
71172;SDS011;58875;51.996;4.504;2022-12-07T03:59:54;2.47;;;1.55;;
71172;SDS011;58875;51.996;4.504;2022-12-07T04:02:22;2.90;;;1.81;;
71172;SDS011;58875;51.996;4.504;2022-12-07T04:04:51;3.08;;;1.90;;
71172;SDS011;58875;51.996;4.504;2022-12-07T04:07:17;3.01;;;1.86;;
71172;SDS011;58875;51.996;4.504;2022-12-07T04:09:43;3.05;;;1.89;;
71172;SDS011;58875;51.996;4.504;2022-12-07T04:12:09;2.83;;;1.76;;
71172;SDS011;58875;51.996;4.504;2022-12-07T04:14:34;2.81;;;1.75;;
71172;SDS011;58875;51.996;4.504;2022-12-07T04:17:00;2.87;;;1.80;;
71172;SDS011;58875;51.996;4.504;2022-12-07T04:19:26;2.83;;;1.78;;
71172;SDS011;58875;51.996;4.504;2022-12-07T04:21:54;2.72;;;1.72;;
71172;SDS011;58875;51.996;4.504;2022-12-07T04:24:21;2.34;;;1.50;;
71172;SDS011;58875;51.996;4.504;2022-12-07T04:26:47;2.42;;;1.55;;
71172;SDS011;58875;51.996;4.504;2022-12-07T04:29:14;2.53;;;1.60;;
71172;SDS011;58875;51.996;4.504;2022-12-07T04:31:41;2.84;;;1.80;;
71172;SDS011;58875;51.996;4.504;2022-12-07T04:34:08;2.50;;;1.60;;
71172;SDS011;58875;51.996;4.504;2022-12-07T04:36:34;2.63;;;1.69;;
71172;SDS011;58875;51.996;4.504;2022-12-07T04:39:00;2.90;;;1.86;;
71172;SDS011;58875;51.996;4.504;2022-12-07T04:41:26;2.29;;;1.47;;
71172;SDS011;58875;51.996;4.504;2022-12-07T04:43:56;2.46;;;1.59;;
71172;SDS011;58875;51.996;4.504;2022-12-07T04:46:23;2.38;;;1.54;;
71172;SDS011;58875;51.996;4.504;2022-12-07T04:48:50;2.75;;;1.78;;
71172;SDS011;58875;51.996;4.504;2022-12-07T04:51:21;2.29;;;1.49;;
71172;SDS011;58875;51.996;4.504;2022-12-07T04:53:49;2.70;;;1.77;;
71172;SDS011;58875;51.996;4.504;2022-12-07T04:56:16;2.12;;;1.39;;
71172;SDS011;58875;51.996;4.504;2022-12-07T04:58:43;2.11;;;1.38;;
71172;SDS011;58875;51.996;4.504;2022-12-07T05:01:10;2.57;;;1.68;;
71172;SDS011;58875;51.996;4.504;2022-12-07T05:03:39;2.25;;;1.47;;
71172;SDS011;58875;51.996;4.504;2022-12-07T05:06:05;2.46;;;1.62;;
71172;SDS011;58875;51.996;4.504;2022-12-07T05:08:32;2.36;;;1.55;;
71172;SDS011;58875;51.996;4.504;2022-12-07T05:10:58;2.22;;;1.47;;
71172;SDS011;58875;51.996;4.504;2022-12-07T05:13:24;2.11;;;1.41;;
71172;SDS011;58875;51.996;4.504;2022-12-07T05:15:50;1.97;;;1.33;;
71172;SDS011;58875;51.996;4.504;2022-12-07T05:18:16;1.86;;;1.26;;
71172;SDS011;58875;51.996;4.504;2022-12-07T05:20:42;2.59;;;1.76;;
71172;SDS011;58875;51.996;4.504;2022-12-07T05:23:07;2.49;;;1.69;;
71172;SDS011;58875;51.996;4.504;2022-12-07T05:25:34;2.06;;;1.42;;
71172;SDS011;58875;51.996;4.504;2022-12-07T05:27:59;2.44;;;1.66;;
71172;SDS011;58875;51.996;4.504;2022-12-07T05:30:25;2.85;;;1.91;;
71172;SDS011;58875;51.996;4.504;2022-12-07T05:32:52;2.37;;;1.60;;
71172;SDS011;58875;51.996;4.504;2022-12-07T05:35:18;2.12;;;1.44;;
71172;SDS011;58875;51.996;4.504;2022-12-07T05:37:44;2.08;;;1.43;;
71172;SDS011;58875;51.996;4.504;2022-12-07T05:40:10;2.66;;;1.84;;
71172;SDS011;58875;51.996;4.504;2022-12-07T05:42:38;2.25;;;1.58;;
71172;SDS011;58875;51.996;4.504;2022-12-07T05:45:04;2.41;;;1.73;;
71172;SDS011;58875;51.996;4.504;2022-12-07T05:47:30;2.42;;;1.72;;
71172;SDS011;58875;51.996;4.504;2022-12-07T05:49:56;2.67;;;1.90;;
71172;SDS011;58875;51.996;4.504;2022-12-07T05:52:21;2.65;;;1.91;;
71172;SDS011;58875;51.996;4.504;2022-12-07T05:54:47;2.38;;;1.74;;
71172;SDS011;58875;51.996;4.504;2022-12-07T05:57:13;2.63;;;1.95;;
71172;SDS011;58875;51.996;4.504;2022-12-07T05:59:39;2.67;;;2.02;;
71172;SDS011;58875;51.996;4.504;2022-12-07T06:02:07;2.34;;;1.79;;
71172;SDS011;58875;51.996;4.504;2022-12-07T06:04:35;2.51;;;1.97;;
71172;SDS011;58875;51.996;4.504;2022-12-07T06:07:03;2.34;;;1.87;;
71172;SDS011;58875;51.996;4.504;2022-12-07T06:09:30;2.55;;;2.04;;
71172;SDS011;58875;51.996;4.504;2022-12-07T06:11:56;2.52;;;2.07;;
71172;SDS011;58875;51.996;4.504;2022-12-07T06:14:41;2.27;;;1.89;;
71172;SDS011;58875;51.996;4.504;2022-12-07T06:17:07;2.59;;;2.17;;
71172;SDS011;58875;51.996;4.504;2022-12-07T06:19:33;2.08;;;1.78;;
71172;SDS011;58875;51.996;4.504;2022-12-07T06:22:00;2.12;;;1.83;;
71172;SDS011;58875;51.996;4.504;2022-12-07T06:24:26;2.10;;;1.81;;
71172;SDS011;58875;51.996;4.504;2022-12-07T06:26:52;2.30;;;2.01;;
71172;SDS011;58875;51.996;4.504;2022-12-07T06:29:18;2.25;;;1.97;;
71172;SDS011;58875;51.996;4.504;2022-12-07T06:31:44;2.32;;;2.03;;
71172;SDS011;58875;51.996;4.504;2022-12-07T06:34:11;2.27;;;2.01;;
71172;SDS011;58875;51.996;4.504;2022-12-07T06:36:42;2.27;;;2.01;;
71172;SDS011;58875;51.996;4.504;2022-12-07T06:39:09;2.63;;;2.31;;
71172;SDS011;58875;51.996;4.504;2022-12-07T06:41:38;2.31;;;2.02;;
71172;SDS011;58875;51.996;4.504;2022-12-07T06:44:05;2.54;;;2.24;;
71172;SDS011;58875;51.996;4.504;2022-12-07T06:46:31;2.66;;;2.29;;
71172;SDS011;58875;51.996;4.504;2022-12-07T06:48:57;2.57;;;2.19;;
71172;SDS011;58875;51.996;4.504;2022-12-07T06:51:23;2.45;;;2.09;;
71172;SDS011;58875;51.996;4.504;2022-12-07T06:53:51;2.60;;;2.20;;
71172;SDS011;58875;51.996;4.504;2022-12-07T06:56:17;2.83;;;2.36;;
71172;SDS011;58875;51.996;4.504;2022-12-07T06:58:42;2.95;;;2.47;;
71172;SDS011;58875;51.996;4.504;2022-12-07T07:01:12;3.11;;;2.51;;
71172;SDS011;58875;51.996;4.504;2022-12-07T07:03:39;2.70;;;2.20;;
71172;SDS011;58875;51.996;4.504;2022-12-07T07:06:05;2.72;;;2.25;;
71172;SDS011;58875;51.996;4.504;2022-12-07T07:08:32;2.82;;;2.32;;
71172;SDS011;58875;51.996;4.504;2022-12-07T07:10:59;2.81;;;2.31;;
71172;SDS011;58875;51.996;4.504;2022-12-07T07:13:25;2.86;;;2.37;;
71172;SDS011;58875;51.996;4.504;2022-12-07T07:15:52;2.44;;;2.06;;
71172;SDS011;58875;51.996;4.504;2022-12-07T07:18:18;2.49;;;2.07;;
71172;SDS011;58875;51.996;4.504;2022-12-07T07:20:43;2.81;;;2.31;;
71172;SDS011;58875;51.996;4.504;2022-12-07T07:23:09;3.09;;;2.52;;
71172;SDS011;58875;51.996;4.504;2022-12-07T07:25:34;3.14;;;2.57;;
71172;SDS011;58875;51.996;4.504;2022-12-07T07:28:00;3.14;;;2.57;;
71172;SDS011;58875;51.996;4.504;2022-12-07T07:30:26;2.94;;;2.44;;
71172;SDS011;58875;51.996;4.504;2022-12-07T07:32:59;3.07;;;2.61;;
71172;SDS011;58875;51.996;4.504;2022-12-07T07:35:27;2.73;;;2.44;;
71172;SDS011;58875;51.996;4.504;2022-12-07T07:37:54;2.81;;;2.59;;
71172;SDS011;58875;51.996;4.504;2022-12-07T07:40:20;2.77;;;2.53;;
71172;SDS011;58875;51.996;4.504;2022-12-07T07:42:47;2.78;;;2.59;;
71172;SDS011;58875;51.996;4.504;2022-12-07T07:45:13;2.71;;;2.55;;
71172;SDS011;58875;51.996;4.504;2022-12-07T07:47:39;3.09;;;2.89;;
71172;SDS011;58875;51.996;4.504;2022-12-07T07:50:05;3.19;;;3.00;;
71172;SDS011;58875;51.996;4.504;2022-12-07T07:52:31;3.06;;;2.87;;
71172;SDS011;58875;51.996;4.504;2022-12-07T07:54:56;3.24;;;3.06;;
71172;SDS011;58875;51.996;4.504;2022-12-07T07:57:22;2.62;;;2.46;;
71172;SDS011;58875;51.996;4.504;2022-12-07T07:59:48;2.56;;;2.33;;
71172;SDS011;58875;51.996;4.504;2022-12-07T08:02:14;2.58;;;2.35;;
71172;SDS011;58875;51.996;4.504;2022-12-07T08:04:42;2.29;;;2.05;;
71172;SDS011;58875;51.996;4.504;2022-12-07T08:07:08;2.31;;;2.01;;
71172;SDS011;58875;51.996;4.504;2022-12-07T08:09:34;2.30;;;2.02;;
71172;SDS011;58875;51.996;4.504;2022-12-07T08:11:59;2.21;;;1.91;;
71172;SDS011;58875;51.996;4.504;2022-12-07T08:14:25;2.11;;;1.79;;
71172;SDS011;58875;51.996;4.504;2022-12-07T08:16:52;2.03;;;1.70;;
71172;SDS011;58875;51.996;4.504;2022-12-07T08:19:18;1.99;;;1.67;;
71172;SDS011;58875;51.996;4.504;2022-12-07T08:21:44;1.95;;;1.64;;
71172;SDS011;58875;51.996;4.504;2022-12-07T08:24:09;2.08;;;1.75;;
71172;SDS011;58875;51.996;4.504;2022-12-07T08:26:38;2.38;;;2.02;;
71172;SDS011;58875;51.996;4.504;2022-12-07T08:29:03;2.49;;;2.14;;
71172;SDS011;58875;51.996;4.504;2022-12-07T08:31:29;3.24;;;2.75;;
71172;SDS011;58875;51.996;4.504;2022-12-07T08:33:55;2.87;;;2.44;;
71172;SDS011;58875;51.996;4.504;2022-12-07T08:36:20;2.79;;;2.48;;
71172;SDS011;58875;51.996;4.504;2022-12-07T08:38:47;2.90;;;2.61;;
71172;SDS011;58875;51.996;4.504;2022-12-07T08:41:13;2.54;;;2.35;;
71172;SDS011;58875;51.996;4.504;2022-12-07T08:43:38;2.83;;;2.61;;
71172;SDS011;58875;51.996;4.504;2022-12-07T08:46:21;2.74;;;2.52;;
71172;SDS011;58875;51.996;4.504;2022-12-07T08:48:57;2.66;;;2.46;;
71172;SDS011;58875;51.996;4.504;2022-12-07T08:51:33;2.40;;;2.27;;
71172;SDS011;58875;51.996;4.504;2022-12-07T08:54:00;2.60;;;2.47;;
71172;SDS011;58875;51.996;4.504;2022-12-07T08:56:31;2.39;;;2.28;;
71172;SDS011;58875;51.996;4.504;2022-12-07T08:58:57;2.45;;;2.33;;
71172;SDS011;58875;51.996;4.504;2022-12-07T09:01:23;2.49;;;2.38;;
71172;SDS011;58875;51.996;4.504;2022-12-07T09:03:49;2.35;;;2.26;;
71172;SDS011;58875;51.996;4.504;2022-12-07T09:06:14;2.57;;;2.44;;
71172;SDS011;58875;51.996;4.504;2022-12-07T09:08:45;2.77;;;2.64;;
71172;SDS011;58875;51.996;4.504;2022-12-07T09:11:13;2.85;;;2.70;;
71172;SDS011;58875;51.996;4.504;2022-12-07T09:13:38;3.24;;;2.97;;
71172;SDS011;58875;51.996;4.504;2022-12-07T09:16:04;3.15;;;2.92;;
71172;SDS011;58875;51.996;4.504;2022-12-07T09:18:30;3.03;;;2.92;;
71172;SDS011;58875;51.996;4.504;2022-12-07T09:20:56;3.90;;;3.80;;
71172;SDS011;58875;51.996;4.504;2022-12-07T09:23:21;3.92;;;3.82;;
71172;SDS011;58875;51.996;4.504;2022-12-07T09:25:47;4.16;;;4.15;;
71172;SDS011;58875;51.996;4.504;2022-12-07T09:28:13;4.17;;;4.17;;
71172;SDS011;58875;51.996;4.504;2022-12-07T09:30:38;3.86;;;3.86;;
71172;SDS011;58875;51.996;4.504;2022-12-07T09:33:04;3.95;;;3.94;;
71172;SDS011;58875;51.996;4.504;2022-12-07T09:35:29;4.09;;;4.09;;
71172;SDS011;58875;51.996;4.504;2022-12-07T09:37:55;3.82;;;3.82;;
71172;SDS011;58875;51.996;4.504;2022-12-07T09:40:20;3.86;;;3.86;;
71172;SDS011;58875;51.996;4.504;2022-12-07T09:42:49;3.86;;;3.86;;
71172;SDS011;58875;51.996;4.504;2022-12-07T09:45:22;3.80;;;3.80;;
71172;SDS011;58875;51.996;4.504;2022-12-07T09:47:52;3.74;;;3.74;;
71172;SDS011;58875;51.996;4.504;2022-12-07T09:50:22;3.88;;;3.88;;
71172;SDS011;58875;51.996;4.504;2022-12-07T09:52:51;4.14;;;4.14;;
71172;SDS011;58875;51.996;4.504;2022-12-07T09:55:22;4.27;;;4.26;;
71172;SDS011;58875;51.996;4.504;2022-12-07T09:57:52;4.07;;;4.01;;
71172;SDS011;58875;51.996;4.504;2022-12-07T10:00:20;4.28;;;4.20;;
71172;SDS011;58875;51.996;4.504;2022-12-07T10:02:57;4.17;;;4.16;;
71172;SDS011;58875;51.996;4.504;2022-12-07T10:05:46;4.54;;;4.46;;
71172;SDS011;58875;51.996;4.504;2022-12-07T10:08:13;4.61;;;4.55;;
71172;SDS011;58875;51.996;4.504;2022-12-07T10:10:41;4.53;;;4.51;;
71172;SDS011;58875;51.996;4.504;2022-12-07T10:18:18;4.62;;;4.53;;
71172;SDS011;58875;51.996;4.504;2022-12-07T10:20:59;4.13;;;4.06;;
71172;SDS011;58875;51.996;4.504;2022-12-07T10:23:39;4.18;;;4.07;;
71172;SDS011;58875;51.996;4.504;2022-12-07T10:26:19;4.13;;;4.01;;
71172;SDS011;58875;51.996;4.504;2022-12-07T10:28:52;4.49;;;4.33;;
71172;SDS011;58875;51.996;4.504;2022-12-07T10:31:19;4.67;;;4.48;;
71172;SDS011;58875;51.996;4.504;2022-12-07T10:33:57;4.32;;;4.19;;
71172;SDS011;58875;51.996;4.504;2022-12-07T10:36:26;4.59;;;4.49;;
71172;SDS011;58875;51.996;4.504;2022-12-07T10:39:17;4.92;;;4.79;;
71172;SDS011;58875;51.996;4.504;2022-12-07T10:44:23;4.88;;;4.74;;
71172;SDS011;58875;51.996;4.504;2022-12-07T10:46:57;4.58;;;4.46;;
71172;SDS011;58875;51.996;4.504;2022-12-07T10:55:01;3.26;;;3.11;;
71172;SDS011;58875;51.996;4.504;2022-12-07T11:06:54;2.44;;;2.18;;
71172;SDS011;58875;51.996;4.504;2022-12-07T11:11:59;2.68;;;2.28;;
71172;SDS011;58875;51.996;4.504;2022-12-07T11:17:31;2.39;;;1.95;;
71172;SDS011;58875;51.996;4.504;2022-12-07T11:25:39;2.14;;;1.70;;
71172;SDS011;58875;51.996;4.504;2022-12-07T11:38:53;1.73;;;1.28;;
71172;SDS011;58875;51.996;4.504;2022-12-07T11:41:23;2.12;;;1.57;;
71172;SDS011;58875;51.996;4.504;2022-12-07T11:49:52;1.71;;;1.22;;
71172;SDS011;58875;51.996;4.504;2022-12-07T11:52:27;1.76;;;1.25;;
71172;SDS011;58875;51.996;4.504;2022-12-07T11:54:57;1.56;;;1.10;;
71172;SDS011;58875;51.996;4.504;2022-12-07T11:57:28;1.44;;;1.02;;
71172;SDS011;58875;51.996;4.504;2022-12-07T12:00:09;1.37;;;0.97;;
71172;SDS011;58875;51.996;4.504;2022-12-07T12:02:55;1.81;;;1.28;;
71172;SDS011;58875;51.996;4.504;2022-12-07T12:05:29;2.52;;;1.79;;
71172;SDS011;58875;51.996;4.504;2022-12-07T12:07:59;1.82;;;1.31;;
71172;SDS011;58875;51.996;4.504;2022-12-07T12:21:36;2.83;;;1.96;;
71172;SDS011;58875;51.996;4.504;2022-12-07T12:24:05;2.34;;;1.62;;
71172;SDS011;58875;51.996;4.504;2022-12-07T12:26:48;2.37;;;1.63;;
71172;SDS011;58875;51.996;4.504;2022-12-07T12:29:19;2.15;;;1.48;;
71172;SDS011;58875;51.996;4.504;2022-12-07T12:47:43;2.13;;;1.66;;
71172;SDS011;58875;51.996;4.504;2022-12-07T12:50:30;1.65;;;1.33;;
71172;SDS011;58875;51.996;4.504;2022-12-07T12:53:14;1.43;;;1.17;;
71172;SDS011;58875;51.996;4.504;2022-12-07T12:56:06;1.33;;;1.07;;
71172;SDS011;58875;51.996;4.504;2022-12-07T12:58:49;1.32;;;1.06;;
71172;SDS011;58875;51.996;4.504;2022-12-07T13:04:01;1.62;;;1.28;;
71172;SDS011;58875;51.996;4.504;2022-12-07T13:06:39;1.57;;;1.21;;
71172;SDS011;58875;51.996;4.504;2022-12-07T13:09:15;1.72;;;1.32;;
71172;SDS011;58875;51.996;4.504;2022-12-07T13:11:47;1.58;;;1.21;;
71172;SDS011;58875;51.996;4.504;2022-12-07T13:17:03;1.19;;;0.88;;
71172;SDS011;58875;51.996;4.504;2022-12-07T13:22:49;1.50;;;1.10;;
71172;SDS011;58875;51.996;4.504;2022-12-07T13:27:48;1.50;;;1.08;;
71172;SDS011;58875;51.996;4.504;2022-12-07T13:30:22;1.73;;;1.24;;
71172;SDS011;58875;51.996;4.504;2022-12-07T13:32:55;1.60;;;1.14;;
71172;SDS011;58875;51.996;4.504;2022-12-07T13:35:33;1.71;;;1.23;;
71172;SDS011;58875;51.996;4.504;2022-12-07T13:38:03;1.19;;;0.87;;
71172;SDS011;58875;51.996;4.504;2022-12-07T13:40:39;1.29;;;0.95;;
71172;SDS011;58875;51.996;4.504;2022-12-07T13:43:04;1.31;;;0.97;;
71172;SDS011;58875;51.996;4.504;2022-12-07T13:45:41;1.11;;;0.83;;
71172;SDS011;58875;51.996;4.504;2022-12-07T13:48:30;1.33;;;1.00;;
71172;SDS011;58875;51.996;4.504;2022-12-07T13:50:58;1.20;;;0.90;;
71172;SDS011;58875;51.996;4.504;2022-12-07T13:53:26;1.13;;;0.85;;
71172;SDS011;58875;51.996;4.504;2022-12-07T13:55:58;1.28;;;0.96;;
71172;SDS011;58875;51.996;4.504;2022-12-07T13:58:26;1.45;;;1.09;;
71172;SDS011;58875;51.996;4.504;2022-12-07T14:00:56;1.85;;;1.37;;
71172;SDS011;58875;51.996;4.504;2022-12-07T14:03:27;2.64;;;1.97;;
71172;SDS011;58875;51.996;4.504;2022-12-07T14:08:50;1.59;;;1.28;;
71172;SDS011;58875;51.996;4.504;2022-12-07T14:11:30;1.83;;;1.46;;
71172;SDS011;58875;51.996;4.504;2022-12-07T14:13:57;1.95;;;1.55;;
71172;SDS011;58875;51.996;4.504;2022-12-07T14:16:33;1.49;;;1.20;;
71172;SDS011;58875;51.996;4.504;2022-12-07T14:19:05;1.72;;;1.38;;
71172;SDS011;58875;51.996;4.504;2022-12-07T14:22:05;1.69;;;1.33;;
71172;SDS011;58875;51.996;4.504;2022-12-07T14:24:43;1.42;;;1.10;;
71172;SDS011;58875;51.996;4.504;2022-12-07T14:27:22;1.54;;;1.17;;
71172;SDS011;58875;51.996;4.504;2022-12-07T14:29:55;1.82;;;1.38;;
71172;SDS011;58875;51.996;4.504;2022-12-07T14:32:25;1.72;;;1.31;;
71172;SDS011;58875;51.996;4.504;2022-12-07T14:37:24;2.51;;;1.93;;
71172;SDS011;58875;51.996;4.504;2022-12-07T14:39:51;2.21;;;1.76;;
71172;SDS011;58875;51.996;4.504;2022-12-07T14:42:17;2.56;;;2.06;;
71172;SDS011;58875;51.996;4.504;2022-12-07T14:44:42;4.03;;;3.37;;
71172;SDS011;58875;51.996;4.504;2022-12-07T14:47:12;6.48;;;5.81;;
71172;SDS011;58875;51.996;4.504;2022-12-07T14:49:37;6.79;;;6.35;;
71172;SDS011;58875;51.996;4.504;2022-12-07T14:52:03;5.46;;;5.22;;
71172;SDS011;58875;51.996;4.504;2022-12-07T14:54:31;3.92;;;3.80;;
71172;SDS011;58875;51.996;4.504;2022-12-07T14:56:58;3.57;;;3.44;;
71172;SDS011;58875;51.996;4.504;2022-12-07T14:59:23;2.78;;;2.66;;
71172;SDS011;58875;51.996;4.504;2022-12-07T15:01:57;2.22;;;2.14;;
71172;SDS011;58875;51.996;4.504;2022-12-07T15:04:22;1.70;;;1.61;;
71172;SDS011;58875;51.996;4.504;2022-12-07T15:06:58;1.63;;;1.50;;
71172;SDS011;58875;51.996;4.504;2022-12-07T15:09:28;1.72;;;1.55;;
71172;SDS011;58875;51.996;4.504;2022-12-07T15:11:54;1.79;;;1.58;;
71172;SDS011;58875;51.996;4.504;2022-12-07T15:14:19;2.13;;;1.87;;
71172;SDS011;58875;51.996;4.504;2022-12-07T15:16:45;1.97;;;1.67;;
71172;SDS011;58875;51.996;4.504;2022-12-07T15:19:15;2.20;;;1.86;;
71172;SDS011;58875;51.996;4.504;2022-12-07T15:21:43;2.34;;;1.93;;
71172;SDS011;58875;51.996;4.504;2022-12-07T15:24:10;2.28;;;1.88;;
71172;SDS011;58875;51.996;4.504;2022-12-07T15:26:37;1.98;;;1.65;;
71172;SDS011;58875;51.996;4.504;2022-12-07T15:29:04;2.62;;;2.17;;
71172;SDS011;58875;51.996;4.504;2022-12-07T15:31:31;3.03;;;2.55;;
71172;SDS011;58875;51.996;4.504;2022-12-07T15:33:57;3.26;;;2.75;;
71172;SDS011;58875;51.996;4.504;2022-12-07T15:36:24;3.49;;;2.99;;
71172;SDS011;58875;51.996;4.504;2022-12-07T15:38:52;3.70;;;3.27;;
71172;SDS011;58875;51.996;4.504;2022-12-07T15:41:19;3.13;;;2.78;;
71172;SDS011;58875;51.996;4.504;2022-12-07T15:43:46;2.70;;;2.43;;
71172;SDS011;58875;51.996;4.504;2022-12-07T15:46:34;2.38;;;2.16;;
71172;SDS011;58875;51.996;4.504;2022-12-07T15:49:02;2.23;;;2.05;;
71172;SDS011;58875;51.996;4.504;2022-12-07T15:51:29;2.80;;;2.55;;
71172;SDS011;58875;51.996;4.504;2022-12-07T15:53:54;3.49;;;3.27;;
71172;SDS011;58875;51.996;4.504;2022-12-07T15:56:22;3.14;;;2.96;;
71172;SDS011;58875;51.996;4.504;2022-12-07T15:58:47;2.73;;;2.55;;
71172;SDS011;58875;51.996;4.504;2022-12-07T16:01:14;3.14;;;2.93;;
71172;SDS011;58875;51.996;4.504;2022-12-07T16:03:43;2.81;;;2.62;;
71172;SDS011;58875;51.996;4.504;2022-12-07T16:06:10;2.31;;;2.16;;
71172;SDS011;58875;51.996;4.504;2022-12-07T16:08:36;2.91;;;2.66;;
71172;SDS011;58875;51.996;4.504;2022-12-07T16:11:05;2.87;;;2.54;;
71172;SDS011;58875;51.996;4.504;2022-12-07T16:13:32;3.23;;;2.88;;
71172;SDS011;58875;51.996;4.504;2022-12-07T16:15:57;2.89;;;2.58;;
71172;SDS011;58875;51.996;4.504;2022-12-07T16:18:23;3.00;;;2.66;;
71172;SDS011;58875;51.996;4.504;2022-12-07T16:20:48;3.51;;;3.18;;
71172;SDS011;58875;51.996;4.504;2022-12-07T16:23:14;3.34;;;3.13;;
71172;SDS011;58875;51.996;4.504;2022-12-07T16:25:40;2.99;;;2.81;;
71172;SDS011;58875;51.996;4.504;2022-12-07T16:28:07;3.08;;;2.88;;
71172;SDS011;58875;51.996;4.504;2022-12-07T16:30:33;2.95;;;2.73;;
71172;SDS011;58875;51.996;4.504;2022-12-07T16:33:01;2.27;;;2.12;;
71172;SDS011;58875;51.996;4.504;2022-12-07T16:35:27;1.94;;;1.81;;
71172;SDS011;58875;51.996;4.504;2022-12-07T16:37:52;2.22;;;2.06;;
71172;SDS011;58875;51.996;4.504;2022-12-07T16:40:18;2.62;;;2.47;;
71172;SDS011;58875;51.996;4.504;2022-12-07T16:42:43;2.95;;;2.80;;
71172;SDS011;58875;51.996;4.504;2022-12-07T16:45:09;2.77;;;2.66;;
71172;SDS011;58875;51.996;4.504;2022-12-07T16:47:39;2.79;;;2.69;;
71172;SDS011;58875;51.996;4.504;2022-12-07T16:50:05;2.50;;;2.42;;
71172;SDS011;58875;51.996;4.504;2022-12-07T16:52:32;2.42;;;2.33;;
71172;SDS011;58875;51.996;4.504;2022-12-07T16:55:01;2.17;;;2.03;;
71172;SDS011;58875;51.996;4.504;2022-12-07T16:57:27;2.20;;;2.03;;
71172;SDS011;58875;51.996;4.504;2022-12-07T16:59:55;2.15;;;1.99;;
71172;SDS011;58875;51.996;4.504;2022-12-07T17:02:21;2.14;;;1.96;;
71172;SDS011;58875;51.996;4.504;2022-12-07T17:04:46;2.41;;;2.22;;
71172;SDS011;58875;51.996;4.504;2022-12-07T17:07:12;2.48;;;2.27;;